Terminal Aerodrome Forecast
Issued by NWS Brownsville, TX

Home | Current Version | Previous Version | Text Only | Print | Product List | Glossary On
Versions: 1 2 3 4 5 6 7 8 9 10 11 12 13 14 15
000
FTUS44 KBRO 252320
TAFHRL
TAF
KHRL 252320Z 2600/2624 17018G25KT P6SM FEW020
     FM260200 15013KT P6SM SCT020
     FM260500 15009KT P6SM OVC015
     FM261500 15015G22KT P6SM SCT030=

USA.gov is the U.S. government's official web portal to all federal, state and local government web resources and services.